sensor_id;sensor_type;location;lat;lon;timestamp;pressure;altitude;pressure_sealevel;temperature;humidity
42633;BME280;28261;53.304;-6.284;2023-04-30T00:00:52;101320.81;;;12.09;100.00
42633;BME280;28261;53.304;-6.284;2023-04-30T00:02:58;101319.09;;;12.08;100.00
42633;BME280;28261;53.304;-6.284;2023-04-30T00:05:04;101320.16;;;12.06;100.00
42633;BME280;28261;53.304;-6.284;2023-04-30T00:07:09;101317.59;;;12.04;100.00
42633;BME280;28261;53.304;-6.284;2023-04-30T00:09:13;101312.47;;;12.01;100.00
42633;BME280;28261;53.304;-6.284;2023-04-30T00:11:18;101314.28;;;12.00;100.00
42633;BME280;28261;53.304;-6.284;2023-04-30T00:13:23;101315.03;;;12.02;100.00
42633;BME280;28261;53.304;-6.284;2023-04-30T00:15:27;101318.00;;;11.98;100.00
42633;BME280;28261;53.304;-6.284;2023-04-30T00:17:33;101319.72;;;11.99;100.00
42633;BME280;28261;53.304;-6.284;2023-04-30T00:19:40;101314.19;;;12.02;100.00
42633;BME280;28261;53.304;-6.284;2023-04-30T00:21:48;101312.19;;;12.06;100.00
42633;BME280;28261;53.304;-6.284;2023-04-30T00:23:53;101312.19;;;12.06;100.00
42633;BME280;28261;53.304;-6.284;2023-04-30T00:26:00;101313.97;;;12.05;100.00
42633;BME280;28261;53.304;-6.284;2023-04-30T00:28:08;101318.34;;;12.06;100.00
42633;BME280;28261;53.304;-6.284;2023-04-30T00:30:16;101313.03;;;12.06;100.00
42633;BME280;28261;53.304;-6.284;2023-04-30T00:32:27;101315.69;;;12.06;100.00
42633;BME280;28261;53.304;-6.284;2023-04-30T00:34:35;101316.84;;;12.02;100.00
42633;BME280;28261;53.304;-6.284;2023-04-30T00:36:43;101317.16;;;11.97;100.00
42633;BME280;28261;53.304;-6.284;2023-04-30T00:38:56;101311.50;;;11.88;100.00
42633;BME280;28261;53.304;-6.284;2023-04-30T00:41:05;101307.34;;;11.83;100.00
42633;BME280;28261;53.304;-6.284;2023-04-30T00:43:11;101310.19;;;11.80;100.00
42633;BME280;28261;53.304;-6.284;2023-04-30T00:45:16;101317.59;;;11.75;100.00
42633;BME280;28261;53.304;-6.284;2023-04-30T00:47:24;101312.38;;;11.74;100.00
42633;BME280;28261;53.304;-6.284;2023-04-30T00:49:29;101305.66;;;11.68;100.00
42633;BME280;28261;53.304;-6.284;2023-04-30T00:51:33;101301.00;;;11.57;100.00
42633;BME280;28261;53.304;-6.284;2023-04-30T00:53:39;101311.34;;;11.47;100.00
42633;BME280;28261;53.304;-6.284;2023-04-30T00:55:46;101310.97;;;11.39;100.00
42633;BME280;28261;53.304;-6.284;2023-04-30T00:57:51;101313.97;;;11.33;100.00
42633;BME280;28261;53.304;-6.284;2023-04-30T00:59:56;101311.72;;;11.27;100.00
42633;BME280;28261;53.304;-6.284;2023-04-30T01:02:01;101312.25;;;11.17;100.00
42633;BME280;28261;53.304;-6.284;2023-04-30T01:04:06;101303.91;;;11.09;100.00
42633;BME280;28261;53.304;-6.284;2023-04-30T01:06:11;101305.13;;;11.04;100.00
42633;BME280;28261;53.304;-6.284;2023-04-30T01:08:17;101306.16;;;11.01;100.00
42633;BME280;28261;53.304;-6.284;2023-04-30T01:10:22;101303.72;;;10.98;100.00
42633;BME280;28261;53.304;-6.284;2023-04-30T01:12:38;101305.59;;;10.96;100.00
42633;BME280;28261;53.304;-6.284;2023-04-30T01:14:53;101297.91;;;10.91;100.00
42633;BME280;28261;53.304;-6.284;2023-04-30T01:17:05;101305.19;;;10.88;100.00
42633;BME280;28261;53.304;-6.284;2023-04-30T01:21:41;101291.19;;;10.86;100.00
42633;BME280;28261;53.304;-6.284;2023-04-30T01:23:54;101293.06;;;10.83;100.00
42633;BME280;28261;53.304;-6.284;2023-04-30T01:26:10;101296.81;;;10.79;100.00
42633;BME280;28261;53.304;-6.284;2023-04-30T01:28:19;101291.72;;;10.76;100.00
42633;BME280;28261;53.304;-6.284;2023-04-30T01:30:35;101295.50;;;10.72;100.00
42633;BME280;28261;53.304;-6.284;2023-04-30T01:32:48;101293.78;;;10.71;100.00
42633;BME280;28261;53.304;-6.284;2023-04-30T01:34:53;101289.34;;;10.72;100.00
42633;BME280;28261;53.304;-6.284;2023-04-30T01:37:09;101291.13;;;10.71;100.00
42633;BME280;28261;53.304;-6.284;2023-04-30T01:39:32;101284.09;;;10.70;100.00
42633;BME280;28261;53.304;-6.284;2023-04-30T01:41:48;101280.50;;;10.71;100.00
42633;BME280;28261;53.304;-6.284;2023-04-30T01:44:08;101269.72;;;10.74;100.00
42633;BME280;28261;53.304;-6.284;2023-04-30T01:46:18;101268.78;;;10.75;100.00
42633;BME280;28261;53.304;-6.284;2023-04-30T01:48:38;101266.22;;;10.74;100.00
42633;BME280;28261;53.304;-6.284;2023-04-30T01:50:50;101268.69;;;10.77;100.00
42633;BME280;28261;53.304;-6.284;2023-04-30T01:53:01;101267.66;;;10.79;100.00
42633;BME280;28261;53.304;-6.284;2023-04-30T01:55:17;101268.44;;;10.81;100.00
42633;BME280;28261;53.304;-6.284;2023-04-30T01:57:27;101262.16;;;10.82;100.00
42633;BME280;28261;53.304;-6.284;2023-04-30T01:59:38;101259.50;;;10.82;100.00
42633;BME280;28261;53.304;-6.284;2023-04-30T02:01:46;101254.22;;;10.82;100.00
42633;BME280;28261;53.304;-6.284;2023-04-30T02:03:51;101257.81;;;10.81;100.00
42633;BME280;28261;53.304;-6.284;2023-04-30T02:05:57;101256.09;;;10.80;100.00
42633;BME280;28261;53.304;-6.284;2023-04-30T02:08:04;101249.19;;;10.78;100.00
42633;BME280;28261;53.304;-6.284;2023-04-30T02:10:09;101249.97;;;10.80;100.00
42633;BME280;28261;53.304;-6.284;2023-04-30T02:12:15;101250.81;;;10.80;100.00
42633;BME280;28261;53.304;-6.284;2023-04-30T02:14:19;101247.56;;;10.75;100.00
42633;BME280;28261;53.304;-6.284;2023-04-30T02:16:29;101249.38;;;10.75;100.00
42633;BME280;28261;53.304;-6.284;2023-04-30T02:18:37;101242.34;;;10.74;100.00
42633;BME280;28261;53.304;-6.284;2023-04-30T02:20:46;101249.47;;;10.73;100.00
42633;BME280;28261;53.304;-6.284;2023-04-30T02:22:58;101245.84;;;10.74;100.00
42633;BME280;28261;53.304;-6.284;2023-04-30T02:25:07;101248.69;;;10.71;100.00
42633;BME280;28261;53.304;-6.284;2023-04-30T02:27:18;101245.28;;;10.69;100.00
42633;BME280;28261;53.304;-6.284;2023-04-30T02:29:25;101245.56;;;10.64;100.00
42633;BME280;28261;53.304;-6.284;2023-04-30T02:31:32;101243.19;;;10.60;100.00
42633;BME280;28261;53.304;-6.284;2023-04-30T02:33:40;101242.41;;;10.58;100.00
42633;BME280;28261;53.304;-6.284;2023-04-30T02:35:49;101239.09;;;10.54;100.00
42633;BME280;28261;53.304;-6.284;2023-04-30T02:38:00;101241.06;;;10.50;100.00
42633;BME280;28261;53.304;-6.284;2023-04-30T02:40:06;101234.31;;;10.45;100.00
42633;BME280;28261;53.304;-6.284;2023-04-30T02:42:10;101233.00;;;10.38;100.00
42633;BME280;28261;53.304;-6.284;2023-04-30T02:44:16;101225.34;;;10.31;100.00
42633;BME280;28261;53.304;-6.284;2023-04-30T02:46:20;101231.75;;;10.27;100.00
42633;BME280;28261;53.304;-6.284;2023-04-30T02:48:27;101222.38;;;10.22;100.00
42633;BME280;28261;53.304;-6.284;2023-04-30T02:50:32;101228.69;;;10.19;100.00
42633;BME280;28261;53.304;-6.284;2023-04-30T02:52:36;101233.16;;;10.19;100.00
42633;BME280;28261;53.304;-6.284;2023-04-30T02:54:42;101228.78;;;10.18;100.00
42633;BME280;28261;53.304;-6.284;2023-04-30T02:56:47;101226.16;;;10.18;100.00
42633;BME280;28261;53.304;-6.284;2023-04-30T02:58:53;101219.81;;;10.20;100.00
42633;BME280;28261;53.304;-6.284;2023-04-30T03:01:00;101225.13;;;10.20;100.00
42633;BME280;28261;53.304;-6.284;2023-04-30T03:03:06;101232.13;;;10.21;100.00
42633;BME280;28261;53.304;-6.284;2023-04-30T03:05:20;101222.38;;;10.22;100.00
42633;BME280;28261;53.304;-6.284;2023-04-30T03:07:25;101217.91;;;10.22;100.00
42633;BME280;28261;53.304;-6.284;2023-04-30T03:09:31;101219.63;;;10.23;100.00
42633;BME280;28261;53.304;-6.284;2023-04-30T03:11:39;101225.63;;;10.27;100.00
42633;BME280;28261;53.304;-6.284;2023-04-30T03:13:44;101227.16;;;10.31;100.00
42633;BME280;28261;53.304;-6.284;2023-04-30T03:15:57;101223.41;;;10.35;100.00
42633;BME280;28261;53.304;-6.284;2023-04-30T03:18:07;101229.47;;;10.37;100.00
42633;BME280;28261;53.304;-6.284;2023-04-30T03:20:13;101226.66;;;10.40;100.00
42633;BME280;28261;53.304;-6.284;2023-04-30T03:22:24;101222.09;;;10.42;100.00
42633;BME280;28261;53.304;-6.284;2023-04-30T03:24:30;101220.28;;;10.43;100.00
42633;BME280;28261;53.304;-6.284;2023-04-30T03:26:37;101216.72;;;10.44;100.00
42633;BME280;28261;53.304;-6.284;2023-04-30T03:28:42;101213.88;;;10.47;100.00
42633;BME280;28261;53.304;-6.284;2023-04-30T03:30:49;101217.19;;;10.50;100.00
42633;BME280;28261;53.304;-6.284;2023-04-30T03:32:55;101213.44;;;10.55;100.00
42633;BME280;28261;53.304;-6.284;2023-04-30T03:35:04;101205.38;;;10.56;100.00
42633;BME280;28261;53.304;-6.284;2023-04-30T03:37:08;101205.22;;;10.59;100.00
42633;BME280;28261;53.304;-6.284;2023-04-30T03:39:16;101209.56;;;10.60;100.00
42633;BME280;28261;53.304;-6.284;2023-04-30T03:41:20;101203.50;;;10.58;100.00
42633;BME280;28261;53.304;-6.284;2023-04-30T03:43:28;101199.03;;;10.59;100.00
42633;BME280;28261;53.304;-6.284;2023-04-30T03:45:35;101206.06;;;10.60;100.00
42633;BME280;28261;53.304;-6.284;2023-04-30T03:47:43;101209.47;;;10.62;100.00
42633;BME280;28261;53.304;-6.284;2023-04-30T03:49:50;101203.31;;;10.61;100.00
42633;BME280;28261;53.304;-6.284;2023-04-30T03:51:58;101203.41;;;10.60;100.00
42633;BME280;28261;53.304;-6.284;2023-04-30T03:54:04;101189.22;;;10.61;100.00
42633;BME280;28261;53.304;-6.284;2023-04-30T03:56:14;101196.88;;;10.65;100.00
42633;BME280;28261;53.304;-6.284;2023-04-30T03:58:21;101192.25;;;10.69;100.00
42633;BME280;28261;53.304;-6.284;2023-04-30T04:00:26;101196.78;;;10.67;100.00
42633;BME280;28261;53.304;-6.284;2023-04-30T04:02:30;101197.47;;;10.71;100.00
42633;BME280;28261;53.304;-6.284;2023-04-30T04:04:35;101191.88;;;10.75;100.00
42633;BME280;28261;53.304;-6.284;2023-04-30T04:06:40;101201.34;;;10.79;100.00
42633;BME280;28261;53.304;-6.284;2023-04-30T04:08:46;101202.03;;;10.83;100.00
42633;BME280;28261;53.304;-6.284;2023-04-30T04:10:50;101200.91;;;10.87;100.00
42633;BME280;28261;53.304;-6.284;2023-04-30T04:12:57;101197.22;;;10.90;100.00
42633;BME280;28261;53.304;-6.284;2023-04-30T04:15:01;101197.03;;;10.93;100.00
42633;BME280;28261;53.304;-6.284;2023-04-30T04:17:06;101193.22;;;10.97;100.00
42633;BME280;28261;53.304;-6.284;2023-04-30T04:19:10;101199.22;;;11.00;100.00
42633;BME280;28261;53.304;-6.284;2023-04-30T04:21:15;101192.88;;;11.03;100.00
42633;BME280;28261;53.304;-6.284;2023-04-30T04:23:20;101192.66;;;11.06;100.00
42633;BME280;28261;53.304;-6.284;2023-04-30T04:25:27;101194.19;;;11.10;100.00
42633;BME280;28261;53.304;-6.284;2023-04-30T04:27:33;101183.47;;;11.12;100.00
42633;BME280;28261;53.304;-6.284;2023-04-30T04:29:39;101191.25;;;11.15;100.00
42633;BME280;28261;53.304;-6.284;2023-04-30T04:31:49;101188.47;;;11.16;100.00
42633;BME280;28261;53.304;-6.284;2023-04-30T04:33:53;101184.69;;;11.21;100.00
42633;BME280;28261;53.304;-6.284;2023-04-30T04:36:02;101190.78;;;11.23;100.00
42633;BME280;28261;53.304;-6.284;2023-04-30T04:38:08;101189.84;;;11.24;100.00
42633;BME280;28261;53.304;-6.284;2023-04-30T04:40:12;101190.56;;;11.26;100.00
42633;BME280;28261;53.304;-6.284;2023-04-30T04:42:19;101184.31;;;11.27;100.00
42633;BME280;28261;53.304;-6.284;2023-04-30T04:44:23;101190.38;;;11.29;100.00
42633;BME280;28261;53.304;-6.284;2023-04-30T04:46:30;101193.03;;;11.29;100.00
42633;BME280;28261;53.304;-6.284;2023-04-30T04:48:35;101184.88;;;11.32;100.00
42633;BME280;28261;53.304;-6.284;2023-04-30T04:50:45;101177.66;;;11.34;100.00
42633;BME280;28261;53.304;-6.284;2023-04-30T04:52:49;101181.09;;;11.36;100.00
42633;BME280;28261;53.304;-6.284;2023-04-30T04:54:55;101179.28;;;11.37;100.00
42633;BME280;28261;53.304;-6.284;2023-04-30T04:57:00;101177.47;;;11.37;100.00
42633;BME280;28261;53.304;-6.284;2023-04-30T04:59:05;101179.19;;;11.38;100.00
42633;BME280;28261;53.304;-6.284;2023-04-30T05:01:11;101175.69;;;11.38;100.00
42633;BME280;28261;53.304;-6.284;2023-04-30T05:03:18;101175.88;;;11.34;100.00
42633;BME280;28261;53.304;-6.284;2023-04-30T05:05:25;101177.78;;;11.32;100.00
42633;BME280;28261;53.304;-6.284;2023-04-30T05:07:30;101177.09;;;11.29;100.00
42633;BME280;28261;53.304;-6.284;2023-04-30T05:09:36;101176.25;;;11.28;100.00
42633;BME280;28261;53.304;-6.284;2023-04-30T05:11:42;101174.44;;;11.29;100.00
42633;BME280;28261;53.304;-6.284;2023-04-30T05:13:48;101173.41;;;11.31;100.00
42633;BME280;28261;53.304;-6.284;2023-04-30T05:15:52;101172.38;;;11.34;100.00
42633;BME280;28261;53.304;-6.284;2023-04-30T05:17:57;101173.97;;;11.37;100.00
42633;BME280;28261;53.304;-6.284;2023-04-30T05:20:03;101166.94;;;11.35;100.00
42633;BME280;28261;53.304;-6.284;2023-04-30T05:22:13;101177.41;;;11.39;100.00
42633;BME280;28261;53.304;-6.284;2023-04-30T05:24:17;101172.94;;;11.39;100.00
42633;BME280;28261;53.304;-6.284;2023-04-30T05:26:22;101172.72;;;11.42;100.00
42633;BME280;28261;53.304;-6.284;2023-04-30T05:28:27;101169.97;;;11.44;100.00
42633;BME280;28261;53.304;-6.284;2023-04-30T05:30:34;101172.53;;;11.45;100.00
42633;BME280;28261;53.304;-6.284;2023-04-30T05:32:37;101175.94;;;11.47;100.00
42633;BME280;28261;53.304;-6.284;2023-04-30T05:34:43;101170.63;;;11.47;100.00
42633;BME280;28261;53.304;-6.284;2023-04-30T05:36:48;101171.47;;;11.48;100.00
42633;BME280;28261;53.304;-6.284;2023-04-30T05:38:52;101169.69;;;11.48;100.00
42633;BME280;28261;53.304;-6.284;2023-04-30T05:40:56;101173.00;;;11.52;100.00
42633;BME280;28261;53.304;-6.284;2023-04-30T05:42:59;101174.69;;;11.53;100.00
42633;BME280;28261;53.304;-6.284;2023-04-30T05:45:06;101171.31;;;11.51;100.00
42633;BME280;28261;53.304;-6.284;2023-04-30T05:47:11;101176.50;;;11.52;100.00
42633;BME280;28261;53.304;-6.284;2023-04-30T05:49:14;101180.69;;;11.57;100.00
42633;BME280;28261;53.304;-6.284;2023-04-30T05:51:18;101176.22;;;11.57;100.00
42633;BME280;28261;53.304;-6.284;2023-04-30T05:53:25;101176.00;;;11.60;100.00
42633;BME280;28261;53.304;-6.284;2023-04-30T05:55:33;101181.13;;;11.63;100.00
42633;BME280;28261;53.304;-6.284;2023-04-30T05:57:39;101177.34;;;11.67;100.00
42633;BME280;28261;53.304;-6.284;2023-04-30T05:59:43;101185.00;;;11.72;100.00
42633;BME280;28261;53.304;-6.284;2023-04-30T06:01:51;101181.41;;;11.73;100.00
42633;BME280;28261;53.304;-6.284;2023-04-30T06:03:57;101179.47;;;11.75;100.00
42633;BME280;28261;53.304;-6.284;2023-04-30T06:06:03;101189.06;;;11.78;100.00
42633;BME280;28261;53.304;-6.284;2023-04-30T06:08:07;101183.84;;;11.76;100.00
42633;BME280;28261;53.304;-6.284;2023-04-30T06:10:12;101190.00;;;11.77;100.00
42633;BME280;28261;53.304;-6.284;2023-04-30T06:12:18;101183.00;;;11.76;100.00
42633;BME280;28261;53.304;-6.284;2023-04-30T06:14:24;101191.59;;;11.79;100.00
42633;BME280;28261;53.304;-6.284;2023-04-30T06:16:29;101189.72;;;11.81;100.00
42633;BME280;28261;53.304;-6.284;2023-04-30T06:18:33;101187.78;;;11.83;100.00
42633;BME280;28261;53.304;-6.284;2023-04-30T06:20:37;101187.69;;;11.85;100.00
42633;BME280;28261;53.304;-6.284;2023-04-30T06:22:42;101188.56;;;11.85;100.00
42633;BME280;28261;53.304;-6.284;2023-04-30T06:24:46;101191.22;;;11.85;100.00
42633;BME280;28261;53.304;-6.284;2023-04-30T06:26:52;101192.06;;;11.86;100.00
42633;BME280;28261;53.304;-6.284;2023-04-30T06:28:56;101193.88;;;11.85;100.00
42633;BME280;28261;53.304;-6.284;2023-04-30T06:31:00;101200.25;;;11.83;100.00
42633;BME280;28261;53.304;-6.284;2023-04-30T06:33:04;101194.25;;;11.79;100.00
42633;BME280;28261;53.304;-6.284;2023-04-30T06:35:09;101195.25;;;11.78;100.00
42633;BME280;28261;53.304;-6.284;2023-04-30T06:37:13;101202.22;;;11.79;100.00
42633;BME280;28261;53.304;-6.284;2023-04-30T06:39:16;101201.19;;;11.82;100.00
42633;BME280;28261;53.304;-6.284;2023-04-30T06:41:20;101201.19;;;11.82;100.00
42633;BME280;28261;53.304;-6.284;2023-04-30T06:43:24;101196.75;;;11.82;100.00
42633;BME280;28261;53.304;-6.284;2023-04-30T06:45:28;101197.47;;;11.84;100.00
42633;BME280;28261;53.304;-6.284;2023-04-30T06:47:32;101207.06;;;11.87;100.00
42633;BME280;28261;53.304;-6.284;2023-04-30T06:49:39;101199.75;;;11.91;100.00
42633;BME280;28261;53.304;-6.284;2023-04-30T06:51:44;101198.53;;;11.96;100.00
42633;BME280;28261;53.304;-6.284;2023-04-30T06:53:48;101204.28;;;12.03;100.00
42633;BME280;28261;53.304;-6.284;2023-04-30T06:55:52;101204.63;;;12.11;100.00
42633;BME280;28261;53.304;-6.284;2023-04-30T06:58:03;101205.00;;;12.19;100.00
42633;BME280;28261;53.304;-6.284;2023-04-30T07:00:12;101206.16;;;12.28;100.00
42633;BME280;28261;53.304;-6.284;2023-04-30T07:02:19;101202.91;;;12.38;100.00
42633;BME280;28261;53.304;-6.284;2023-04-30T07:04:24;101200.16;;;12.52;100.00
42633;BME280;28261;53.304;-6.284;2023-04-30T07:06:30;101209.22;;;12.75;100.00
42633;BME280;28261;53.304;-6.284;2023-04-30T07:08:33;101200.59;;;13.10;100.00
42633;BME280;28261;53.304;-6.284;2023-04-30T07:10:43;101202.94;;;13.41;100.00
42633;BME280;28261;53.304;-6.284;2023-04-30T07:12:47;101196.19;;;13.61;100.00
42633;BME280;28261;53.304;-6.284;2023-04-30T07:14:51;101200.13;;;13.92;100.00
42633;BME280;28261;53.304;-6.284;2023-04-30T07:16:58;101196.97;;;14.22;100.00
42633;BME280;28261;53.304;-6.284;2023-04-30T07:19:03;101196.22;;;14.45;100.00
42633;BME280;28261;53.304;-6.284;2023-04-30T07:21:09;101192.81;;;14.67;100.00
42633;BME280;28261;53.304;-6.284;2023-04-30T07:23:13;101195.25;;;14.81;100.00
42633;BME280;28261;53.304;-6.284;2023-04-30T07:25:17;101197.19;;;14.79;100.00
42633;BME280;28261;53.304;-6.284;2023-04-30T07:27:21;101200.19;;;14.75;100.00
42633;BME280;28261;53.304;-6.284;2023-04-30T07:29:26;101198.66;;;14.95;100.00
42633;BME280;28261;53.304;-6.284;2023-04-30T07:31:30;101198.31;;;15.22;100.00
42633;BME280;28261;53.304;-6.284;2023-04-30T07:33:36;101194.38;;;15.71;100.00
42633;BME280;28261;53.304;-6.284;2023-04-30T07:35:39;101197.56;;;16.09;99.51
42633;BME280;28261;53.304;-6.284;2023-04-30T07:37:43;101199.81;;;16.25;100.00
42633;BME280;28261;53.304;-6.284;2023-04-30T07:39:46;101198.88;;;16.15;99.78
42633;BME280;28261;53.304;-6.284;2023-04-30T07:41:50;101197.16;;;15.93;100.00
42633;BME280;28261;53.304;-6.284;2023-04-30T07:43:54;101208.69;;;15.70;100.00
42633;BME280;28261;53.304;-6.284;2023-04-30T07:45:58;101198.66;;;15.51;100.00
42633;BME280;28261;53.304;-6.284;2023-04-30T07:48:02;101204.25;;;15.37;100.00
42633;BME280;28261;53.304;-6.284;2023-04-30T07:50:08;101208.03;;;15.23;100.00
42633;BME280;28261;53.304;-6.284;2023-04-30T07:52:15;101213.59;;;15.09;100.00
42633;BME280;28261;53.304;-6.284;2023-04-30T07:54:21;101205.84;;;14.94;100.00
42633;BME280;28261;53.304;-6.284;2023-04-30T07:56:27;101211.25;;;14.81;100.00
42633;BME280;28261;53.304;-6.284;2023-04-30T07:58:32;101199.09;;;14.66;100.00
42633;BME280;28261;53.304;-6.284;2023-04-30T08:00:39;101212.97;;;14.47;100.00
42633;BME280;28261;53.304;-6.284;2023-04-30T08:02:43;101214.97;;;14.32;100.00
42633;BME280;28261;53.304;-6.284;2023-04-30T08:04:51;101201.09;;;14.15;100.00
42633;BME280;28261;53.304;-6.284;2023-04-30T08:06:57;101210.13;;;14.01;100.00
42633;BME280;28261;53.304;-6.284;2023-04-30T08:09:02;101207.47;;;13.88;100.00
42633;BME280;28261;53.304;-6.284;2023-04-30T08:11:07;101216.91;;;13.81;100.00
42633;BME280;28261;53.304;-6.284;2023-04-30T08:13:11;101213.00;;;13.74;100.00
42633;BME280;28261;53.304;-6.284;2023-04-30T08:15:14;101216.59;;;13.73;100.00
42633;BME280;28261;53.304;-6.284;2023-04-30T08:17:18;101220.97;;;13.74;100.00
42633;BME280;28261;53.304;-6.284;2023-04-30T08:19:22;101216.50;;;13.75;100.00
42633;BME280;28261;53.304;-6.284;2023-04-30T08:21:27;101212.88;;;13.76;100.00
42633;BME280;28261;53.304;-6.284;2023-04-30T08:23:33;101216.25;;;13.78;100.00
42633;BME280;28261;53.304;-6.284;2023-04-30T08:25:37;101217.84;;;13.80;100.00
42633;BME280;28261;53.304;-6.284;2023-04-30T08:27:41;101215.94;;;13.82;100.00
42633;BME280;28261;53.304;-6.284;2023-04-30T08:29:45;101221.56;;;13.91;100.00
42633;BME280;28261;53.304;-6.284;2023-04-30T08:31:50;101212.53;;;14.04;100.00
42633;BME280;28261;53.304;-6.284;2023-04-30T08:33:54;101220.81;;;14.13;100.00
42633;BME280;28261;53.304;-6.284;2023-04-30T08:35:59;101214.19;;;14.18;100.00
42633;BME280;28261;53.304;-6.284;2023-04-30T08:38:03;101214.69;;;14.24;100.00
42633;BME280;28261;53.304;-6.284;2023-04-30T08:40:09;101218.00;;;14.27;100.00
42633;BME280;28261;53.304;-6.284;2023-04-30T08:42:16;101225.41;;;14.35;100.00
42633;BME280;28261;53.304;-6.284;2023-04-30T08:44:22;101221.31;;;14.42;100.00
42633;BME280;28261;53.304;-6.284;2023-04-30T08:46:27;101226.19;;;14.48;100.00
42633;BME280;28261;53.304;-6.284;2023-04-30T08:48:32;101217.84;;;14.53;100.00
42633;BME280;28261;53.304;-6.284;2023-04-30T08:50:37;101213.75;;;14.60;100.00
42633;BME280;28261;53.304;-6.284;2023-04-30T08:52:41;101210.03;;;14.74;100.00
42633;BME280;28261;53.304;-6.284;2023-04-30T08:54:47;101211.16;;;14.94;100.00
42633;BME280;28261;53.304;-6.284;2023-04-30T08:56:52;101201.56;;;15.14;100.00
42633;BME280;28261;53.304;-6.284;2023-04-30T08:58:56;101205.34;;;15.23;99.15
42633;BME280;28261;53.304;-6.284;2023-04-30T09:01:00;101207.06;;;15.24;98.94
42633;BME280;28261;53.304;-6.284;2023-04-30T09:03:05;101203.75;;;15.32;98.66
42633;BME280;28261;53.304;-6.284;2023-04-30T09:05:12;101201.34;;;15.40;97.65
42633;BME280;28261;53.304;-6.284;2023-04-30T09:07:17;101200.34;;;15.52;97.54
42633;BME280;28261;53.304;-6.284;2023-04-30T09:09:27;101200.34;;;15.64;96.04
42633;BME280;28261;53.304;-6.284;2023-04-30T09:11:32;101202.03;;;15.76;95.67
42633;BME280;28261;53.304;-6.284;2023-04-30T09:13:41;101193.53;;;15.82;94.15
42633;BME280;28261;53.304;-6.284;2023-04-30T09:15:51;101197.63;;;15.86;94.58
42633;BME280;28261;53.304;-6.284;2023-04-30T09:18:10;101200.53;;;15.95;93.43
42633;BME280;28261;53.304;-6.284;2023-04-30T09:20:15;101199.56;;;15.96;93.47
42633;BME280;28261;53.304;-6.284;2023-04-30T09:22:22;101200.03;;;16.01;92.89
42633;BME280;28261;53.304;-6.284;2023-04-30T09:24:44;101193.31;;;16.06;92.03
42633;BME280;28261;53.304;-6.284;2023-04-30T09:26:49;101197.91;;;16.16;91.51
42633;BME280;28261;53.304;-6.284;2023-04-30T09:28:57;101203.34;;;16.26;89.78
42633;BME280;28261;53.304;-6.284;2023-04-30T09:31:02;101204.53;;;16.33;88.52
42633;BME280;28261;53.304;-6.284;2023-04-30T09:33:07;101201.56;;;16.36;87.33
42633;BME280;28261;53.304;-6.284;2023-04-30T09:35:28;101205.25;;;16.35;86.21
42633;BME280;28261;53.304;-6.284;2023-04-30T09:37:35;101191.88;;;16.35;86.17
42633;BME280;28261;53.304;-6.284;2023-04-30T09:39:48;101198.66;;;16.39;85.11
42633;BME280;28261;53.304;-6.284;2023-04-30T09:42:06;101208.56;;;16.48;84.58
42633;BME280;28261;53.304;-6.284;2023-04-30T09:46:49;101205.19;;;16.67;81.98
42633;BME280;28261;53.304;-6.284;2023-04-30T09:48:57;101204.84;;;16.82;81.68
42633;BME280;28261;53.304;-6.284;2023-04-30T09:51:02;101211.28;;;16.90;81.91
42633;BME280;28261;53.304;-6.284;2023-04-30T09:53:06;101207.63;;;16.91;80.64
42633;BME280;28261;53.304;-6.284;2023-04-30T09:55:11;101209.50;;;17.01;81.25
42633;BME280;28261;53.304;-6.284;2023-04-30T09:57:15;101213.53;;;17.16;81.87
42633;BME280;28261;53.304;-6.284;2023-04-30T09:59:27;101210.34;;;17.32;80.89
42633;BME280;28261;53.304;-6.284;2023-04-30T10:01:32;101208.41;;;17.44;80.88
42633;BME280;28261;53.304;-6.284;2023-04-30T10:03:44;101215.09;;;17.59;81.26
42633;BME280;28261;53.304;-6.284;2023-04-30T10:05:50;101221.59;;;17.67;80.43
42633;BME280;28261;53.304;-6.284;2023-04-30T10:07:56;101211.69;;;17.57;79.25
42633;BME280;28261;53.304;-6.284;2023-04-30T10:10:03;101221.72;;;17.55;79.33
42633;BME280;28261;53.304;-6.284;2023-04-30T10:12:13;101214.50;;;17.56;78.62
42633;BME280;28261;53.304;-6.284;2023-04-30T10:14:19;101214.53;;;17.66;78.99
42633;BME280;28261;53.304;-6.284;2023-04-30T10:16:29;101214.84;;;17.82;79.27
42633;BME280;28261;53.304;-6.284;2023-04-30T10:18:39;101214.94;;;18.02;78.75
42633;BME280;28261;53.304;-6.284;2023-04-30T10:20:48;101215.50;;;18.15;77.51
42633;BME280;28261;53.304;-6.284;2023-04-30T10:22:54;101211.13;;;18.14;76.14
42633;BME280;28261;53.304;-6.284;2023-04-30T10:24:58;101225.66;;;18.02;76.63
42633;BME280;28261;53.304;-6.284;2023-04-30T10:27:04;101223.06;;;17.90;77.05
42633;BME280;28261;53.304;-6.284;2023-04-30T10:29:09;101224.88;;;17.80;77.18
42633;BME280;28261;53.304;-6.284;2023-04-30T10:31:14;101223.47;;;17.76;77.67
42633;BME280;28261;53.304;-6.284;2023-04-30T10:33:25;101230.63;;;17.66;77.32
42633;BME280;28261;53.304;-6.284;2023-04-30T10:35:37;101226.63;;;17.50;78.28
42633;BME280;28261;53.304;-6.284;2023-04-30T10:37:50;101226.00;;;17.37;78.64
42633;BME280;28261;53.304;-6.284;2023-04-30T10:39:56;101218.22;;;17.24;79.08
42633;BME280;28261;53.304;-6.284;2023-04-30T10:42:01;101223.53;;;17.14;79.58
42633;BME280;28261;53.304;-6.284;2023-04-30T10:44:06;101230.06;;;17.00;79.75
42633;BME280;28261;53.304;-6.284;2023-04-30T10:46:11;101220.38;;;16.88;80.31
42633;BME280;28261;53.304;-6.284;2023-04-30T10:48:16;101217.91;;;16.75;80.57
42633;BME280;28261;53.304;-6.284;2023-04-30T10:50:26;101221.38;;;16.66;81.33
42633;BME280;28261;53.304;-6.284;2023-04-30T10:52:30;101215.81;;;16.57;81.81